sensor_id;sensor_type;location;lat;lon;timestamp;pressure;altitude;pressure_sealevel;temperature
41654;BMP280;30790;52.030;7.110;2022-09-03T00:02:03;100570.50;;;21.87
41654;BMP280;30790;52.030;7.110;2022-09-03T00:04:48;100577.88;;;21.86
41654;BMP280;30790;52.030;7.110;2022-09-03T00:07:42;100579.00;;;21.90
41654;BMP280;30790;52.030;7.110;2022-09-03T00:10:20;100571.34;;;21.87
41654;BMP280;30790;52.030;7.110;2022-09-03T00:12:50;100578.44;;;21.88
41654;BMP280;30790;52.030;7.110;2022-09-03T00:15:18;100572.97;;;21.88
41654;BMP280;30790;52.030;7.110;2022-09-03T00:18:09;100583.16;;;21.93
41654;BMP280;30790;52.030;7.110;2022-09-03T00:20:41;100570.50;;;21.87
41654;BMP280;30790;52.030;7.110;2022-09-03T00:23:10;100573.81;;;21.89
41654;BMP280;30790;52.030;7.110;2022-09-03T00:25:42;100570.50;;;21.87
41654;BMP280;30790;52.030;7.110;2022-09-03T00:28:16;100562.56;;;21.85
41654;BMP280;30790;52.030;7.110;2022-09-03T00:30:45;100567.78;;;21.87
41654;BMP280;30790;52.030;7.110;2022-09-03T00:33:19;100574.31;;;21.86
41654;BMP280;30790;52.030;7.110;2022-09-03T00:35:54;100572.16;;;21.88
41654;BMP280;30790;52.030;7.110;2022-09-03T00:38:21;100566.13;;;21.86
41654;BMP280;30790;52.030;7.110;2022-09-03T00:43:43;100569.69;;;21.86
41654;BMP280;30790;52.030;7.110;2022-09-03T00:46:27;100574.06;;;21.87
41654;BMP280;30790;52.030;7.110;2022-09-03T00:52:11;100577.88;;;21.86
41654;BMP280;30790;52.030;7.110;2022-09-03T00:54:49;100571.34;;;21.87
41654;BMP280;30790;52.030;7.110;2022-09-03T01:00:15;100567.53;;;21.88
41654;BMP280;30790;52.030;7.110;2022-09-03T01:08:15;100569.44;;;21.88
41654;BMP280;30790;52.030;7.110;2022-09-03T01:13:25;100567.53;;;21.88
41654;BMP280;30790;52.030;7.110;2022-09-03T01:16:08;100561.50;;;21.86
41654;BMP280;30790;52.030;7.110;2022-09-03T01:24:08;100559.28;;;21.83
41654;BMP280;30790;52.030;7.110;2022-09-03T01:32:35;100558.75;;;21.86
41654;BMP280;30790;52.030;7.110;2022-09-03T01:40:13;100570.50;;;21.87
41654;BMP280;30790;52.030;7.110;2022-09-03T01:51:18;100564.22;;;21.86
41654;BMP280;30790;52.030;7.110;2022-09-03T01:59:55;100567.53;;;21.88
41654;BMP280;30790;52.030;7.110;2022-09-03T02:02:25;100568.59;;;21.87
41654;BMP280;30790;52.030;7.110;2022-09-03T02:05:12;100565.88;;;21.87
41654;BMP280;30790;52.030;7.110;2022-09-03T02:10:18;100562.06;;;21.88
41654;BMP280;30790;52.030;7.110;2022-09-03T02:13:09;100568.88;;;21.86
41654;BMP280;30790;52.030;7.110;2022-09-03T02:15:37;100560.09;;;21.84
41654;BMP280;30790;52.030;7.110;2022-09-03T02:18:09;100563.09;;;21.82
41654;BMP280;30790;52.030;7.110;2022-09-03T02:20:37;100542.81;;;21.73
41654;BMP280;30790;52.030;7.110;2022-09-03T02:23:03;100560.09;;;21.84
41654;BMP280;30790;52.030;7.110;2022-09-03T02:25:34;100559.03;;;21.85
41654;BMP280;30790;52.030;7.110;2022-09-03T02:28:02;100565.31;;;21.85
41654;BMP280;30790;52.030;7.110;2022-09-03T02:30:28;100568.03;;;21.85
41654;BMP280;30790;52.030;7.110;2022-09-03T02:32:54;100544.72;;;21.73
41654;BMP280;30790;52.030;7.110;2022-09-03T02:35:19;100557.63;;;21.82
41654;BMP280;30790;52.030;7.110;2022-09-03T02:37:44;100555.47;;;21.84
41654;BMP280;30790;52.030;7.110;2022-09-03T02:40:10;100559.28;;;21.83
41654;BMP280;30790;52.030;7.110;2022-09-03T02:42:36;100554.94;;;21.87
41654;BMP280;30790;52.030;7.110;2022-09-03T02:45:26;100553.28;;;21.86
41654;BMP280;30790;52.030;7.110;2022-09-03T02:47:54;100560.41;;;21.87
41654;BMP280;30790;52.030;7.110;2022-09-03T02:50:20;100558.75;;;21.86
41654;BMP280;30790;52.030;7.110;2022-09-03T02:52:45;100551.34;;;21.82
41654;BMP280;30790;52.030;7.110;2022-09-03T02:55:10;100549.16;;;21.84
41654;BMP280;30790;52.030;7.110;2022-09-03T02:57:36;100537.94;;;21.80
41654;BMP280;30790;52.030;7.110;2022-09-03T03:00:02;100529.97;;;21.74
41654;BMP280;30790;52.030;7.110;2022-09-03T03:02:27;100547.25;;;21.84
41654;BMP280;30790;52.030;7.110;2022-09-03T03:04:53;100548.34;;;21.83
41654;BMP280;30790;52.030;7.110;2022-09-03T03:07:19;100554.13;;;21.87
41654;BMP280;30790;52.030;7.110;2022-09-03T03:09:45;100535.22;;;21.80
41654;BMP280;30790;52.030;7.110;2022-09-03T03:12:10;100544.53;;;21.84
41654;BMP280;30790;52.030;7.110;2022-09-03T03:14:35;100525.28;;;21.69
41654;BMP280;30790;52.030;7.110;2022-09-03T03:17:00;100541.25;;;21.82
41654;BMP280;30790;52.030;7.110;2022-09-03T03:19:26;100541.81;;;21.84
41654;BMP280;30790;52.030;7.110;2022-09-03T03:21:51;100527.53;;;21.77
41654;BMP280;30790;52.030;7.110;2022-09-03T03:24:16;100531.97;;;21.83
41654;BMP280;30790;52.030;7.110;2022-09-03T03:26:42;100536.34;;;21.84
41654;BMP280;30790;52.030;7.110;2022-09-03T03:29:13;100543.19;;;21.87
41654;BMP280;30790;52.030;7.110;2022-09-03T03:31:39;100533.88;;;21.83
41654;BMP280;30790;52.030;7.110;2022-09-03T03:34:04;100536.84;;;21.81
41654;BMP280;30790;52.030;7.110;2022-09-03T03:36:31;100543.44;;;21.85
41654;BMP280;30790;52.030;7.110;2022-09-03T03:38:58;100536.91;;;21.86
41654;BMP280;30790;52.030;7.110;2022-09-03T03:41:32;100539.63;;;21.86
41654;BMP280;30790;52.030;7.110;2022-09-03T03:44:00;100538.53;;;21.87
41654;BMP280;30790;52.030;7.110;2022-09-03T03:46:30;100546.19;;;21.85
41654;BMP280;30790;52.030;7.110;2022-09-03T03:48:56;100539.31;;;21.83
41654;BMP280;30790;52.030;7.110;2022-09-03T03:51:21;100541.53;;;21.86
41654;BMP280;30790;52.030;7.110;2022-09-03T03:53:46;100536.84;;;21.81
41654;BMP280;30790;52.030;7.110;2022-09-03T03:56:14;100537.41;;;21.83
41654;BMP280;30790;52.030;7.110;2022-09-03T03:58:41;100533.59;;;21.84
41654;BMP280;30790;52.030;7.110;2022-09-03T04:01:16;100531.97;;;21.83
41654;BMP280;30790;52.030;7.110;2022-09-03T04:03:42;100527.56;;;21.82
41654;BMP280;30790;52.030;7.110;2022-09-03T04:06:09;100533.59;;;21.84
41654;BMP280;30790;52.030;7.110;2022-09-03T04:08:36;100529.78;;;21.85
41654;BMP280;30790;52.030;7.110;2022-09-03T04:11:03;100529.78;;;21.85
41654;BMP280;30790;52.030;7.110;2022-09-03T04:13:30;100512.53;;;21.80
41654;BMP280;30790;52.030;7.110;2022-09-03T04:16:01;100529.78;;;21.85
41654;BMP280;30790;52.030;7.110;2022-09-03T04:18:26;100524.28;;;21.80
41654;BMP280;30790;52.030;7.110;2022-09-03T04:20:52;100534.13;;;21.81
41654;BMP280;30790;52.030;7.110;2022-09-03T04:23:17;100523.75;;;21.83
41654;BMP280;30790;52.030;7.110;2022-09-03T04:25:43;100527.00;;;21.80
41654;BMP280;30790;52.030;7.110;2022-09-03T04:28:09;100531.13;;;21.83
41654;BMP280;30790;52.030;7.110;2022-09-03T04:30:36;100524.84;;;21.82
41654;BMP280;30790;52.030;7.110;2022-09-03T04:33:01;100518.00;;;21.80
41654;BMP280;30790;52.030;7.110;2022-09-03T04:35:26;100521.84;;;21.84
41654;BMP280;30790;52.030;7.110;2022-09-03T04:37:54;100516.09;;;21.80
41654;BMP280;30790;52.030;7.110;2022-09-03T04:40:19;100522.13;;;21.82
41654;BMP280;30790;52.030;7.110;2022-09-03T04:42:44;100512.78;;;21.78
41654;BMP280;30790;52.030;7.110;2022-09-03T04:45:10;100516.38;;;21.84
41654;BMP280;30790;52.030;7.110;2022-09-03T04:47:36;100517.72;;;21.81
41654;BMP280;30790;52.030;7.110;2022-09-03T04:50:03;100516.59;;;21.77
41654;BMP280;30790;52.030;7.110;2022-09-03T04:52:29;100521.84;;;21.84
41654;BMP280;30790;52.030;7.110;2022-09-03T04:54:56;100518.25;;;21.78
41654;BMP280;30790;52.030;7.110;2022-09-03T04:57:21;100510.88;;;21.79
41654;BMP280;30790;52.030;7.110;2022-09-03T04:59:47;100518.00;;;21.80
41654;BMP280;30790;52.030;7.110;2022-09-03T05:02:12;100522.38;;;21.81
41654;BMP280;30790;52.030;7.110;2022-09-03T05:04:39;100520.19;;;21.83
41654;BMP280;30790;52.030;7.110;2022-09-03T05:07:05;100494.41;;;21.69
41654;BMP280;30790;52.030;7.110;2022-09-03T05:09:30;100518.00;;;21.80
41654;BMP280;30790;52.030;7.110;2022-09-03T05:11:55;100511.16;;;21.77
41654;BMP280;30790;52.030;7.110;2022-09-03T05:14:20;100510.31;;;21.77
41654;BMP280;30790;52.030;7.110;2022-09-03T05:16:46;100497.97;;;21.69
41654;BMP280;30790;52.030;7.110;2022-09-03T05:19:12;100510.88;;;21.79
41654;BMP280;30790;52.030;7.110;2022-09-03T05:21:37;100521.53;;;21.80
41654;BMP280;30790;52.030;7.110;2022-09-03T05:24:03;100524.03;;;21.82
41654;BMP280;30790;52.030;7.110;2022-09-03T05:26:31;100505.06;;;21.70
41654;BMP280;30790;52.030;7.110;2022-09-03T05:29:01;100512.78;;;21.78
41654;BMP280;30790;52.030;7.110;2022-09-03T05:31:29;100517.16;;;21.79
41654;BMP280;30790;52.030;7.110;2022-09-03T05:33:57;100524.84;;;21.82
41654;BMP280;30790;52.030;7.110;2022-09-03T05:36:26;100520.47;;;21.81
41654;BMP280;30790;52.030;7.110;2022-09-03T05:38:51;100517.72;;;21.81
41654;BMP280;30790;52.030;7.110;2022-09-03T05:41:20;100503.72;;;21.73
41654;BMP280;30790;52.030;7.110;2022-09-03T05:43:47;100519.09;;;21.79
41654;BMP280;30790;52.030;7.110;2022-09-03T05:46:19;100505.69;;;21.77
41654;BMP280;30790;52.030;7.110;2022-09-03T05:48:45;100497.72;;;21.71
41654;BMP280;30790;52.030;7.110;2022-09-03T05:51:15;100511.97;;;21.78
41654;BMP280;30790;52.030;7.110;2022-09-03T05:53:41;100517.72;;;21.81
41654;BMP280;30790;52.030;7.110;2022-09-03T05:56:09;100517.72;;;21.81
41654;BMP280;30790;52.030;7.110;2022-09-03T05:58:37;100510.31;;;21.77
41654;BMP280;30790;52.030;7.110;2022-09-03T06:01:22;100521.53;;;21.80
41654;BMP280;30790;52.030;7.110;2022-09-03T06:04:00;100523.16;;;21.76
41654;BMP280;30790;52.030;7.110;2022-09-03T06:06:26;100518.25;;;21.78
41654;BMP280;30790;52.030;7.110;2022-09-03T06:08:53;100512.22;;;21.76
41654;BMP280;30790;52.030;7.110;2022-09-03T06:11:23;100519.09;;;21.79
41654;BMP280;30790;52.030;7.110;2022-09-03T06:13:59;100526.44;;;21.78
41654;BMP280;30790;52.030;7.110;2022-09-03T06:16:31;100516.88;;;21.76
41654;BMP280;30790;52.030;7.110;2022-09-03T06:18:56;100530.00;;;21.79
41654;BMP280;30790;52.030;7.110;2022-09-03T06:21:23;100534.03;;;21.71
41654;BMP280;30790;52.030;7.110;2022-09-03T06:23:50;100535.09;;;21.65
41654;BMP280;30790;52.030;7.110;2022-09-03T06:26:19;100531.88;;;21.46
41654;BMP280;30790;52.030;7.110;2022-09-03T06:28:45;100532.44;;;21.48
41654;BMP280;30790;52.030;7.110;2022-09-03T06:31:14;100529.41;;;21.45
41654;BMP280;30790;52.030;7.110;2022-09-03T06:33:41;100522.31;;;21.44
41654;BMP280;30790;52.030;7.110;2022-09-03T06:36:10;100535.41;;;21.42
41654;BMP280;30790;52.030;7.110;2022-09-03T06:38:37;100534.84;;;21.40
41654;BMP280;30790;52.030;7.110;2022-09-03T06:41:14;100532.94;;;21.40
41654;BMP280;30790;52.030;7.110;2022-09-03T06:43:46;100540.03;;;21.41
41654;BMP280;30790;52.030;7.110;2022-09-03T06:46:17;100541.94;;;21.41
41654;BMP280;30790;52.030;7.110;2022-09-03T06:48:43;100532.94;;;21.40
41654;BMP280;30790;52.030;7.110;2022-09-03T06:51:11;100527.19;;;21.42
41654;BMP280;30790;52.030;7.110;2022-09-03T06:53:39;100521.56;;;21.26
41654;BMP280;30790;52.030;7.110;2022-09-03T06:56:07;100531.53;;;21.38
41654;BMP280;30790;52.030;7.110;2022-09-03T06:58:35;100534.28;;;21.38
41654;BMP280;30790;52.030;7.110;2022-09-03T07:01:12;100538.13;;;21.42
41654;BMP280;30790;52.030;7.110;2022-09-03T07:03:39;100535.50;;;21.08
41654;BMP280;30790;52.030;7.110;2022-09-03T07:06:08;100540.56;;;20.94
41654;BMP280;30790;52.030;7.110;2022-09-03T07:08:34;100540.09;;;21.03
41654;BMP280;30790;52.030;7.110;2022-09-03T07:11:06;100543.28;;;21.16
41654;BMP280;30790;52.030;7.110;2022-09-03T07:13:36;100538.56;;;21.34
41654;BMP280;30790;52.030;7.110;2022-09-03T07:16:05;100537.38;;;21.24
41654;BMP280;30790;52.030;7.110;2022-09-03T07:18:31;100540.03;;;21.19
41654;BMP280;30790;52.030;7.110;2022-09-03T07:21:02;100540.16;;;21.29
41654;BMP280;30790;52.030;7.110;2022-09-03T07:23:29;100526.25;;;21.31
41654;BMP280;30790;52.030;7.110;2022-09-03T07:26:01;100534.28;;;21.38
41654;BMP280;30790;52.030;7.110;2022-09-03T07:28:27;100528.72;;;21.33
41654;BMP280;30790;52.030;7.110;2022-09-03T07:30:55;100527.47;;;21.18
41654;BMP280;30790;52.030;7.110;2022-09-03T07:33:24;100535.03;;;21.11
41654;BMP280;30790;52.030;7.110;2022-09-03T07:35:50;100537.50;;;21.13
41654;BMP280;30790;52.030;7.110;2022-09-03T07:38:19;100537.25;;;21.14
41654;BMP280;30790;52.030;7.110;2022-09-03T07:40:45;100534.38;;;21.04
41654;BMP280;30790;52.030;7.110;2022-09-03T07:43:12;100533.25;;;21.00
41654;BMP280;30790;52.030;7.110;2022-09-03T07:45:37;100540.34;;;21.01
41654;BMP280;30790;52.030;7.110;2022-09-03T07:48:03;100541.78;;;21.09
41654;BMP280;30790;52.030;7.110;2022-09-03T07:50:29;100543.69;;;21.08
41654;BMP280;30790;52.030;7.110;2022-09-03T07:52:58;100537.31;;;20.97
41654;BMP280;30790;52.030;7.110;2022-09-03T07:55:24;100543.06;;;21.01
41654;BMP280;30790;52.030;7.110;2022-09-03T07:57:49;100528.28;;;20.97
41654;BMP280;30790;52.030;7.110;2022-09-03T08:00:15;100538.84;;;21.10
41654;BMP280;30790;52.030;7.110;2022-09-03T08:02:41;100530.50;;;21.00
41654;BMP280;30790;52.030;7.110;2022-09-03T08:05:07;100530.56;;;21.05
41654;BMP280;30790;52.030;7.110;2022-09-03T08:07:32;100523.97;;;21.01
41654;BMP280;30790;52.030;7.110;2022-09-03T08:09:57;100528.91;;;21.04
41654;BMP280;30790;52.030;7.110;2022-09-03T08:12:23;100536.69;;;21.12
41654;BMP280;30790;52.030;7.110;2022-09-03T08:14:48;100535.03;;;21.11
41654;BMP280;30790;52.030;7.110;2022-09-03T08:17:14;100529.75;;;21.05
41654;BMP280;30790;52.030;7.110;2022-09-03T08:19:39;100523.97;;;21.01
41654;BMP280;30790;52.030;7.110;2022-09-03T08:22:06;100525.63;;;21.02
41654;BMP280;30790;52.030;7.110;2022-09-03T08:24:31;100533.88;;;21.07
41654;BMP280;30790;52.030;7.110;2022-09-03T08:26:57;100533.88;;;21.07
41654;BMP280;30790;52.030;7.110;2022-09-03T08:29:23;100531.72;;;21.09
41654;BMP280;30790;52.030;7.110;2022-09-03T08:31:49;100529.50;;;21.06
41654;BMP280;30790;52.030;7.110;2022-09-03T08:34:14;100525.63;;;21.02
41654;BMP280;30790;52.030;7.110;2022-09-03T08:36:41;100530.88;;;21.09
41654;BMP280;30790;52.030;7.110;2022-09-03T08:39:08;100540.97;;;21.08
41654;BMP280;30790;52.030;7.110;2022-09-03T08:44:18;100532.88;;;21.13
41654;BMP280;30790;52.030;7.110;2022-09-03T08:47:06;100525.13;;;21.05
41654;BMP280;30790;52.030;7.110;2022-09-03T08:49:59;100539.94;;;21.09
41654;BMP280;30790;52.030;7.110;2022-09-03T09:03:55;100536.78;;;21.22
41654;BMP280;30790;52.030;7.110;2022-09-03T09:06:47;100531.94;;;21.24
41654;BMP280;30790;52.030;7.110;2022-09-03T09:09:36;100537.94;;;21.26
41654;BMP280;30790;52.030;7.110;2022-09-03T09:18:02;100525.13;;;21.27
41654;BMP280;30790;52.030;7.110;2022-09-03T09:20:36;100530.38;;;21.34
41654;BMP280;30790;52.030;7.110;2022-09-03T09:23:08;100530.06;;;21.30
41654;BMP280;30790;52.030;7.110;2022-09-03T09:25:48;100527.66;;;21.34
41654;BMP280;30790;52.030;7.110;2022-09-03T09:28:20;100537.03;;;21.43
41654;BMP280;30790;52.030;7.110;2022-09-03T09:30:47;100528.91;;;21.48
41654;BMP280;30790;52.030;7.110;2022-09-03T09:36:47;100511.69;;;21.47
41654;BMP280;30790;52.030;7.110;2022-09-03T09:39:13;100518.22;;;21.46
41654;BMP280;30790;52.030;7.110;2022-09-03T09:41:42;100517.28;;;21.36
41654;BMP280;30790;52.030;7.110;2022-09-03T09:44:18;100520.75;;;21.26
41654;BMP280;30790;52.030;7.110;2022-09-03T09:46:44;100514.00;;;21.34
41654;BMP280;30790;52.030;7.110;2022-09-03T09:52:14;100517.53;;;21.34
41654;BMP280;30790;52.030;7.110;2022-09-03T09:54:41;100520.75;;;21.26
41654;BMP280;30790;52.030;7.110;2022-09-03T09:57:14;100517.09;;;21.20
41654;BMP280;30790;52.030;7.110;2022-09-03T09:59:42;100514.63;;;21.19
41654;BMP280;30790;52.030;7.110;2022-09-03T10:02:16;100514.47;;;21.25
41654;BMP280;30790;52.030;7.110;2022-09-03T10:04:44;100516.94;;;21.27
41654;BMP280;30790;52.030;7.110;2022-09-03T10:07:28;100519.66;;;21.27
41654;BMP280;30790;52.030;7.110;2022-09-03T10:12:35;100510.09;;;21.24
41654;BMP280;30790;52.030;7.110;2022-09-03T10:15:27;100521.88;;;21.30
41654;BMP280;30790;52.030;7.110;2022-09-03T10:18:01;100512.22;;;21.44
41654;BMP280;30790;52.030;7.110;2022-09-03T10:20:35;100510.31;;;21.45
41654;BMP280;30790;52.030;7.110;2022-09-03T10:25:45;100508.19;;;21.52
41654;BMP280;30790;52.030;7.110;2022-09-03T10:28:16;100510.66;;;21.53
41654;BMP280;30790;52.030;7.110;2022-09-03T10:30:59;100507.41;;;21.56
41654;BMP280;30790;52.030;7.110;2022-09-03T10:33:37;100496.72;;;21.55
41654;BMP280;30790;52.030;7.110;2022-09-03T10:36:12;100502.81;;;21.62
41654;BMP280;30790;52.030;7.110;2022-09-03T10:38:40;100504.44;;;21.63
41654;BMP280;30790;52.030;7.110;2022-09-03T10:49:28;100501.78;;;21.68
41654;BMP280;30790;52.030;7.110;2022-09-03T10:52:12;100490.59;;;21.70
41654;BMP280;30790;52.030;7.110;2022-09-03T11:00:10;100494.72;;;21.72
41654;BMP280;30790;52.030;7.110;2022-09-03T11:03:05;100489.00;;;21.74
41654;BMP280;30790;52.030;7.110;2022-09-03T11:05:40;100489.47;;;21.66
41654;BMP280;30790;52.030;7.110;2022-09-03T11:08:31;100495.19;;;21.64
41654;BMP280;30790;52.030;7.110;2022-09-03T11:11:18;100483.22;;;21.70
41654;BMP280;30790;52.030;7.110;2022-09-03T11:13:49;100487.56;;;21.66
41654;BMP280;30790;52.030;7.110;2022-09-03T11:16:25;100478.81;;;21.64
41654;BMP280;30790;52.030;7.110;2022-09-03T11:19:05;100475.00;;;21.65
41654;BMP280;30790;52.030;7.110;2022-09-03T11:21:34;100481.56;;;21.69
41654;BMP280;30790;52.030;7.110;2022-09-03T11:24:05;100494.16;;;21.70
41654;BMP280;30790;52.030;7.110;2022-09-03T11:26:33;100479.66;;;21.70
41654;BMP280;30790;52.030;7.110;2022-09-03T11:29:05;100479.66;;;21.70
41654;BMP280;30790;52.030;7.110;2022-09-03T11:32:00;100474.53;;;21.78
41654;BMP280;30790;52.030;7.110;2022-09-03T11:34:47;100484.41;;;21.84
41654;BMP280;30790;52.030;7.110;2022-09-03T11:37:24;100487.72;;;21.86
41654;BMP280;30790;52.030;7.110;2022-09-03T11:40:05;100488.28;;;21.88
41654;BMP280;30790;52.030;7.110;2022-09-03T11:42:36;100484.50;;;21.95
41654;BMP280;30790;52.030;7.110;2022-09-03T11:47:44;100475.22;;;21.96
41654;BMP280;30790;52.030;7.110;2022-09-03T11:50:20;100462.84;;;21.88
41654;BMP280;30790;52.030;7.110;2022-09-03T11:52:47;100472.44;;;21.90
41654;BMP280;30790;52.030;7.110;2022-09-03T11:55:43;100480.13;;;21.94
41654;BMP280;30790;52.030;7.110;2022-09-03T11:58:45;100479.59;;;21.97
41654;BMP280;30790;52.030;7.110;2022-09-03T12:01:15;100472.50;;;21.96
41654;BMP280;30790;52.030;7.110;2022-09-03T12:04:00;100462.66;;;21.95
41654;BMP280;30790;52.030;7.110;2022-09-03T12:12:26;100466.47;;;21.94
41654;BMP280;30790;52.030;7.110;2022-09-03T12:15:13;100473.59;;;21.95
41654;BMP280;30790;52.030;7.110;2022-09-03T12:17:51;100464.50;;;21.89
41654;BMP280;30790;52.030;7.110;2022-09-03T12:20:38;100454.09;;;21.86
41654;BMP280;30790;52.030;7.110;2022-09-03T12:23:03;100457.13;;;21.89
41654;BMP280;30790;52.030;7.110;2022-09-03T12:25:28;100454.91;;;21.86
41654;BMP280;30790;52.030;7.110;2022-09-03T12:27:54;100459.28;;;21.87
41654;BMP280;30790;52.030;7.110;2022-09-03T12:30:23;100466.41;;;21.88
41654;BMP280;30790;52.030;7.110;2022-09-03T12:32:49;100462.56;;;21.84
41654;BMP280;30790;52.030;7.110;2022-09-03T12:35:22;100466.16;;;21.90
41654;BMP280;30790;52.030;7.110;2022-09-03T12:37:51;100460.19;;;21.93
41654;BMP280;30790;52.030;7.110;2022-09-03T12:40:19;100455.22;;;21.90
41654;BMP280;30790;52.030;7.110;2022-09-03T12:42:45;100454.91;;;21.86
41654;BMP280;30790;52.030;7.110;2022-09-03T12:45:11;100451.09;;;21.87
41654;BMP280;30790;52.030;7.110;2022-09-03T12:47:41;100459.84;;;21.89
41654;BMP280;30790;52.030;7.110;2022-09-03T12:50:08;100457.19;;;21.95
41654;BMP280;30790;52.030;7.110;2022-09-03T12:55:06;100458.28;;;21.94
41654;BMP280;30790;52.030;7.110;2022-09-03T12:57:44;100456.03;;;21.90
41654;BMP280;30790;52.030;7.110;2022-09-03T13:00:16;100441.31;;;21.92
41654;BMP280;30790;52.030;7.110;2022-09-03T13:02:56;100432.53;;;21.89
41654;BMP280;30790;52.030;7.110;2022-09-03T13:06:01;100440.44;;;21.86
41654;BMP280;30790;52.030;7.110;2022-09-03T13:08:34;100442.91;;;21.87
41654;BMP280;30790;52.030;7.110;2022-09-03T13:11:02;100433.59;;;21.83
41654;BMP280;30790;52.030;7.110;2022-09-03T13:13:34;100437.69;;;21.86
41654;BMP280;30790;52.030;7.110;2022-09-03T13:19:07;100426.72;;;21.76
41654;BMP280;30790;52.030;7.110;2022-09-03T13:27:20;100438.66;;;22.02
41654;BMP280;30790;52.030;7.110;2022-09-03T13:30:09;100431.59;;;22.06
41654;BMP280;30790;52.030;7.110;2022-09-03T13:43:19;100423.88;;;21.98
41654;BMP280;30790;52.030;7.110;2022-09-03T13:46:08;100425.41;;;21.88
41654;BMP280;30790;52.030;7.110;2022-09-03T13:48:40;100424.59;;;21.88
41654;BMP280;30790;52.030;7.110;2022-09-03T13:51:29;100414.81;;;21.92
41654;BMP280;30790;52.030;7.110;2022-09-03T13:59:48;100414.28;;;21.95
41654;BMP280;30790;52.030;7.110;2022-09-03T14:05:06;100423.84;;;21.93
41654;BMP280;30790;52.030;7.110;2022-09-03T14:07:45;100414.50;;;21.88
41654;BMP280;30790;52.030;7.110;2022-09-03T14:12:43;100416.59;;;21.76
41654;BMP280;30790;52.030;7.110;2022-09-03T14:15:30;100414.50;;;21.88
41654;BMP280;30790;52.030;7.110;2022-09-03T14:18:34;100410.66;;;21.89
41654;BMP280;30790;52.030;7.110;2022-09-03T14:21:16;100418.88;;;21.89
41654;BMP280;30790;52.030;7.110;2022-09-03T14:23:50;100414.50;;;21.88
41654;BMP280;30790;52.030;7.110;2022-09-03T14:26:23;100409.03;;;21.88
41654;BMP280;30790;52.030;7.110;2022-09-03T14:34:48;100411.25;;;21.92
41654;BMP280;30790;52.030;7.110;2022-09-03T14:57:50;100431.88;;;22.09
41654;BMP280;30790;52.030;7.110;2022-09-03T15:00:34;100426.94;;;22.06
41654;BMP280;30790;52.030;7.110;2022-09-03T15:03:32;100417.88;;;22.01
41654;BMP280;30790;52.030;7.110;2022-09-03T15:06:20;100423.88;;;22.03
41654;BMP280;30790;52.030;7.110;2022-09-03T15:11:21;100420.34;;;22.02
41654;BMP280;30790;52.030;7.110;2022-09-03T15:13:59;100423.66;;;22.04
41654;BMP280;30790;52.030;7.110;2022-09-03T15:16:38;100422.31;;;22.07
41654;BMP280;30790;52.030;7.110;2022-09-03T15:19:12;100426.94;;;22.06
41654;BMP280;30790;52.030;7.110;2022-09-03T15:21:50;100423.94;;;22.08
41654;BMP280;30790;52.030;7.110;2022-09-03T15:37:57;100431.44;;;22.23
41654;BMP280;30790;52.030;7.110;2022-09-03T15:40:47;100439.38;;;22.24
41654;BMP280;30790;52.030;7.110;2022-09-03T15:43:21;100437.72;;;22.23
41654;BMP280;30790;52.030;7.110;2022-09-03T15:53:36;100428.63;;;22.17
41654;BMP280;30790;52.030;7.110;2022-09-03T15:58:54;100433.28;;;22.17
41654;BMP280;30790;52.030;7.110;2022-09-03T16:01:27;100419.59;;;22.12
41654;BMP280;30790;52.030;7.110;2022-09-03T16:04:18;100435.47;;;22.15
41654;BMP280;30790;52.030;7.110;2022-09-03T16:06:59;100433.00;;;22.13
41654;BMP280;30790;52.030;7.110;2022-09-03T16:09:34;100441.19;;;22.13
41654;BMP280;30790;52.030;7.110;2022-09-03T16:14:43;100443.94;;;22.13
41654;BMP280;30790;52.030;7.110;2022-09-03T16:17:33;100446.94;;;22.12
41654;BMP280;30790;52.030;7.110;2022-09-03T16:20:13;100439.53;;;22.12
41654;BMP280;30790;52.030;7.110;2022-09-03T16:22:50;100430.75;;;22.05
41654;BMP280;30790;52.030;7.110;2022-09-03T16:25:30;100432.91;;;22.03
41654;BMP280;30790;52.030;7.110;2022-09-03T16:30:34;100437.06;;;22.11
41654;BMP280;30790;52.030;7.110;2022-09-03T16:33:36;100444.75;;;22.14
41654;BMP280;30790;52.030;7.110;2022-09-03T16:38:50;100447.28;;;22.20
41654;BMP280;30790;52.030;7.110;2022-09-03T16:47:26;100454.13;;;22.23
41654;BMP280;30790;52.030;7.110;2022-09-03T16:50:32;100454.13;;;22.23
41654;BMP280;30790;52.030;7.110;2022-09-03T16:53:12;100456.31;;;22.26
41654;BMP280;30790;52.030;7.110;2022-09-03T17:15:05;100462.34;;;22.28
41654;BMP280;30790;52.030;7.110;2022-09-03T17:18:02;100458.53;;;22.29
41654;BMP280;30790;52.030;7.110;2022-09-03T17:23:47;100462.91;;;22.30
41654;BMP280;30790;52.030;7.110;2022-09-03T17:26:29;100453.50;;;22.16
41654;BMP280;30790;52.030;7.110;2022-09-03T17:31:39;100465.84;;;21.86
41654;BMP280;30790;52.030;7.110;2022-09-03T17:42:58;100488.22;;;22.15
41654;BMP280;30790;52.030;7.110;2022-09-03T17:46:05;100479.44;;;22.08
41654;BMP280;30790;52.030;7.110;2022-09-03T17:48:54;100494.47;;;22.06
41654;BMP280;30790;52.030;7.110;2022-09-03T17:56:59;100500.25;;;22.14
41654;BMP280;30790;52.030;7.110;2022-09-03T18:02:26;100503.28;;;22.18
41654;BMP280;30790;52.030;7.110;2022-09-03T18:04:58;100513.97;;;22.19
41654;BMP280;30790;52.030;7.110;2022-09-03T18:07:31;100512.88;;;22.20
41654;BMP280;30790;52.030;7.110;2022-09-03T18:18:20;100512.31;;;22.18
41654;BMP280;30790;52.030;7.110;2022-09-03T18:20:54;100529.78;;;22.17
41654;BMP280;30790;52.030;7.110;2022-09-03T18:23:49;100527.88;;;22.18
41654;BMP280;30790;52.030;7.110;2022-09-03T18:26:44;100526.75;;;22.14
41654;BMP280;30790;52.030;7.110;2022-09-03T18:29:59;100533.88;;;22.15
41654;BMP280;30790;52.030;7.110;2022-09-03T18:32:44;100548.94;;;22.17
41654;BMP280;30790;52.030;7.110;2022-09-03T18:35:29;100552.47;;;22.18
41654;BMP280;30790;52.030;7.110;2022-09-03T18:38:14;100552.19;;;22.14
41654;BMP280;30790;52.030;7.110;2022-09-03T18:41:05;100558.47;;;22.15
41654;BMP280;30790;52.030;7.110;2022-09-03T18:44:07;100564.50;;;22.17